sensor_id;sensor_type;location;lat;lon;timestamp;P1;durP1;ratioP1;P2;durP2;ratioP2
66830;SDS011;53739;44.224;22.528;2023-12-20T00:01:40;123.78;;;49.20;;
66830;SDS011;53739;44.224;22.528;2023-12-20T00:04:06;104.45;;;44.60;;
66830;SDS011;53739;44.224;22.528;2023-12-20T00:06:33;99.82;;;41.60;;
66830;SDS011;53739;44.224;22.528;2023-12-20T00:08:59;129.18;;;50.97;;
66830;SDS011;53739;44.224;22.528;2023-12-20T00:11:25;175.85;;;64.55;;
66830;SDS011;53739;44.224;22.528;2023-12-20T00:13:51;189.05;;;74.72;;
66830;SDS011;53739;44.224;22.528;2023-12-20T00:16:18;207.13;;;74.55;;
66830;SDS011;53739;44.224;22.528;2023-12-20T00:18:44;251.38;;;86.70;;
66830;SDS011;53739;44.224;22.528;2023-12-20T00:21:10;352.13;;;114.35;;
66830;SDS011;53739;44.224;22.528;2023-12-20T00:23:36;283.90;;;105.80;;
66830;SDS011;53739;44.224;22.528;2023-12-20T00:26:02;177.80;;;76.22;;
66830;SDS011;53739;44.224;22.528;2023-12-20T00:28:28;257.92;;;98.38;;
66830;SDS011;53739;44.224;22.528;2023-12-20T00:30:54;260.65;;;102.43;;
66830;SDS011;53739;44.224;22.528;2023-12-20T00:33:21;349.63;;;125.75;;
66830;SDS011;53739;44.224;22.528;2023-12-20T00:35:47;362.48;;;136.43;;
66830;SDS011;53739;44.224;22.528;2023-12-20T00:38:13;353.90;;;136.48;;
66830;SDS011;53739;44.224;22.528;2023-12-20T00:40:39;347.05;;;127.32;;
66830;SDS011;53739;44.224;22.528;2023-12-20T00:43:06;356.35;;;132.80;;
66830;SDS011;53739;44.224;22.528;2023-12-20T00:45:32;422.77;;;160.98;;
66830;SDS011;53739;44.224;22.528;2023-12-20T00:47:58;394.15;;;151.00;;
66830;SDS011;53739;44.224;22.528;2023-12-20T00:50:24;383.33;;;142.38;;
66830;SDS011;53739;44.224;22.528;2023-12-20T00:52:50;338.85;;;133.77;;
66830;SDS011;53739;44.224;22.528;2023-12-20T00:55:16;288.85;;;123.10;;
66830;SDS011;53739;44.224;22.528;2023-12-20T00:57:42;463.20;;;166.88;;
66830;SDS011;53739;44.224;22.528;2023-12-20T01:00:08;338.23;;;137.35;;
66830;SDS011;53739;44.224;22.528;2023-12-20T01:02:35;352.73;;;133.20;;
66830;SDS011;53739;44.224;22.528;2023-12-20T01:05:01;180.73;;;77.55;;
66830;SDS011;53739;44.224;22.528;2023-12-20T01:07:27;163.20;;;70.53;;
66830;SDS011;53739;44.224;22.528;2023-12-20T01:09:54;265.30;;;91.78;;
66830;SDS011;53739;44.224;22.528;2023-12-20T01:12:20;363.05;;;123.18;;
66830;SDS011;53739;44.224;22.528;2023-12-20T01:14:46;275.42;;;107.13;;
66830;SDS011;53739;44.224;22.528;2023-12-20T01:17:12;127.38;;;54.33;;
66830;SDS011;53739;44.224;22.528;2023-12-20T01:19:38;138.30;;;56.03;;
66830;SDS011;53739;44.224;22.528;2023-12-20T01:22:04;93.32;;;40.55;;
66830;SDS011;53739;44.224;22.528;2023-12-20T01:24:30;87.57;;;38.42;;
66830;SDS011;53739;44.224;22.528;2023-12-20T01:26:57;96.20;;;40.97;;
66830;SDS011;53739;44.224;22.528;2023-12-20T01:29:23;116.03;;;45.60;;
66830;SDS011;53739;44.224;22.528;2023-12-20T01:31:49;156.50;;;60.67;;
66830;SDS011;53739;44.224;22.528;2023-12-20T01:34:15;155.95;;;60.53;;
66830;SDS011;53739;44.224;22.528;2023-12-20T01:36:42;184.32;;;70.53;;
66830;SDS011;53739;44.224;22.528;2023-12-20T01:39:08;190.88;;;74.55;;
66830;SDS011;53739;44.224;22.528;2023-12-20T01:41:34;554.65;;;179.30;;
66830;SDS011;53739;44.224;22.528;2023-12-20T01:44:00;303.13;;;116.68;;
66830;SDS011;53739;44.224;22.528;2023-12-20T01:46:26;228.38;;;92.18;;
66830;SDS011;53739;44.224;22.528;2023-12-20T01:48:53;271.73;;;101.75;;
66830;SDS011;53739;44.224;22.528;2023-12-20T01:51:20;241.60;;;90.97;;
66830;SDS011;53739;44.224;22.528;2023-12-20T01:53:47;206.23;;;85.55;;
66830;SDS011;53739;44.224;22.528;2023-12-20T01:56:13;528.20;;;159.25;;
66830;SDS011;53739;44.224;22.528;2023-12-20T01:58:42;537.42;;;176.10;;
66830;SDS011;53739;44.224;22.528;2023-12-20T02:01:09;487.05;;;166.98;;
66830;SDS011;53739;44.224;22.528;2023-12-20T02:03:36;313.38;;;122.95;;
66830;SDS011;53739;44.224;22.528;2023-12-20T02:06:02;427.95;;;150.40;;
66830;SDS011;53739;44.224;22.528;2023-12-20T02:08:29;349.98;;;123.35;;
66830;SDS011;53739;44.224;22.528;2023-12-20T02:10:55;343.50;;;118.18;;
66830;SDS011;53739;44.224;22.528;2023-12-20T02:13:22;338.63;;;111.78;;
66830;SDS011;53739;44.224;22.528;2023-12-20T02:15:48;553.83;;;196.65;;
66830;SDS011;53739;44.224;22.528;2023-12-20T02:18:14;471.35;;;162.45;;
66830;SDS011;53739;44.224;22.528;2023-12-20T02:20:41;325.52;;;126.45;;
66830;SDS011;53739;44.224;22.528;2023-12-20T02:23:08;338.67;;;124.07;;
66830;SDS011;53739;44.224;22.528;2023-12-20T02:25:34;247.20;;;94.30;;
66830;SDS011;53739;44.224;22.528;2023-12-20T02:28:00;197.18;;;76.80;;
66830;SDS011;53739;44.224;22.528;2023-12-20T02:30:26;172.63;;;70.38;;
66830;SDS011;53739;44.224;22.528;2023-12-20T02:32:52;221.20;;;82.78;;
66830;SDS011;53739;44.224;22.528;2023-12-20T02:35:19;204.13;;;79.97;;
66830;SDS011;53739;44.224;22.528;2023-12-20T02:37:45;156.45;;;63.22;;
66830;SDS011;53739;44.224;22.528;2023-12-20T02:40:11;207.32;;;76.00;;
66830;SDS011;53739;44.224;22.528;2023-12-20T02:42:37;207.98;;;78.25;;
66830;SDS011;53739;44.224;22.528;2023-12-20T02:45:04;204.25;;;77.60;;
66830;SDS011;53739;44.224;22.528;2023-12-20T02:47:30;162.13;;;63.97;;
66830;SDS011;53739;44.224;22.528;2023-12-20T02:49:56;233.45;;;86.70;;
66830;SDS011;53739;44.224;22.528;2023-12-20T02:52:23;229.00;;;82.55;;
66830;SDS011;53739;44.224;22.528;2023-12-20T02:54:49;354.63;;;123.95;;
66830;SDS011;53739;44.224;22.528;2023-12-20T02:57:16;272.48;;;104.95;;
66830;SDS011;53739;44.224;22.528;2023-12-20T02:59:42;192.00;;;77.20;;
66830;SDS011;53739;44.224;22.528;2023-12-20T03:02:08;152.25;;;66.80;;
66830;SDS011;53739;44.224;22.528;2023-12-20T03:04:34;285.98;;;99.45;;
66830;SDS011;53739;44.224;22.528;2023-12-20T03:07:00;159.75;;;70.50;;
66830;SDS011;53739;44.224;22.528;2023-12-20T03:09:26;162.23;;;64.45;;
66830;SDS011;53739;44.224;22.528;2023-12-20T03:11:52;168.95;;;69.07;;
66830;SDS011;53739;44.224;22.528;2023-12-20T03:14:18;191.98;;;79.95;;
66830;SDS011;53739;44.224;22.528;2023-12-20T03:16:51;208.02;;;93.70;;
66830;SDS011;53739;44.224;22.528;2023-12-20T03:19:17;177.00;;;74.53;;
66830;SDS011;53739;44.224;22.528;2023-12-20T03:21:44;180.20;;;77.50;;
66830;SDS011;53739;44.224;22.528;2023-12-20T03:24:10;163.90;;;71.70;;
66830;SDS011;53739;44.224;22.528;2023-12-20T03:26:37;165.88;;;71.50;;
66830;SDS011;53739;44.224;22.528;2023-12-20T03:29:03;204.07;;;81.90;;
66830;SDS011;53739;44.224;22.528;2023-12-20T03:31:29;221.48;;;87.38;;
66830;SDS011;53739;44.224;22.528;2023-12-20T03:33:55;201.23;;;80.30;;
66830;SDS011;53739;44.224;22.528;2023-12-20T03:36:21;154.55;;;62.78;;
66830;SDS011;53739;44.224;22.528;2023-12-20T03:38:47;150.55;;;59.45;;
66830;SDS011;53739;44.224;22.528;2023-12-20T03:41:13;120.50;;;51.60;;
66830;SDS011;53739;44.224;22.528;2023-12-20T03:43:39;133.50;;;50.05;;
66830;SDS011;53739;44.224;22.528;2023-12-20T03:46:07;179.50;;;70.07;;
66830;SDS011;53739;44.224;22.528;2023-12-20T03:48:33;146.27;;;58.85;;
66830;SDS011;53739;44.224;22.528;2023-12-20T03:50:59;119.63;;;51.15;;
66830;SDS011;53739;44.224;22.528;2023-12-20T03:53:26;115.60;;;51.00;;
66830;SDS011;53739;44.224;22.528;2023-12-20T03:55:52;125.20;;;49.20;;
66830;SDS011;53739;44.224;22.528;2023-12-20T03:58:18;126.97;;;49.58;;
66830;SDS011;53739;44.224;22.528;2023-12-20T04:00:44;127.32;;;49.13;;
66830;SDS011;53739;44.224;22.528;2023-12-20T04:03:10;119.13;;;50.42;;
66830;SDS011;53739;44.224;22.528;2023-12-20T04:05:39;129.68;;;54.55;;
66830;SDS011;53739;44.224;22.528;2023-12-20T04:08:07;137.70;;;55.67;;
66830;SDS011;53739;44.224;22.528;2023-12-20T04:10:33;133.52;;;57.28;;
66830;SDS011;53739;44.224;22.528;2023-12-20T04:12:59;130.10;;;59.90;;
66830;SDS011;53739;44.224;22.528;2023-12-20T04:15:25;169.18;;;67.47;;
66830;SDS011;53739;44.224;22.528;2023-12-20T04:17:51;148.18;;;64.32;;
66830;SDS011;53739;44.224;22.528;2023-12-20T04:20:17;145.75;;;64.60;;
66830;SDS011;53739;44.224;22.528;2023-12-20T04:22:44;134.93;;;60.20;;
66830;SDS011;53739;44.224;22.528;2023-12-20T04:25:10;152.50;;;62.53;;
66830;SDS011;53739;44.224;22.528;2023-12-20T04:27:36;156.45;;;64.20;;
66830;SDS011;53739;44.224;22.528;2023-12-20T04:30:02;172.15;;;67.65;;
66830;SDS011;53739;44.224;22.528;2023-12-20T04:32:28;194.45;;;75.88;;
66830;SDS011;53739;44.224;22.528;2023-12-20T04:34:55;186.20;;;75.00;;
66830;SDS011;53739;44.224;22.528;2023-12-20T04:37:21;154.13;;;65.68;;
66830;SDS011;53739;44.224;22.528;2023-12-20T04:39:47;126.45;;;51.83;;
66830;SDS011;53739;44.224;22.528;2023-12-20T04:42:13;74.93;;;38.13;;
66830;SDS011;53739;44.224;22.528;2023-12-20T04:44:39;48.30;;;25.83;;
66830;SDS011;53739;44.224;22.528;2023-12-20T04:47:05;54.72;;;27.33;;
66830;SDS011;53739;44.224;22.528;2023-12-20T04:49:32;50.47;;;22.98;;
66830;SDS011;53739;44.224;22.528;2023-12-20T04:51:58;54.92;;;26.52;;
66830;SDS011;53739;44.224;22.528;2023-12-20T04:54:24;52.28;;;24.13;;
66830;SDS011;53739;44.224;22.528;2023-12-20T04:56:50;55.15;;;23.40;;
66830;SDS011;53739;44.224;22.528;2023-12-20T04:59:16;37.10;;;17.10;;
66830;SDS011;53739;44.224;22.528;2023-12-20T05:01:42;47.10;;;19.23;;
66830;SDS011;53739;44.224;22.528;2023-12-20T05:04:08;49.38;;;23.40;;
66830;SDS011;53739;44.224;22.528;2023-12-20T05:06:34;42.28;;;22.58;;
66830;SDS011;53739;44.224;22.528;2023-12-20T05:09:01;56.42;;;24.98;;
66830;SDS011;53739;44.224;22.528;2023-12-20T05:11:27;76.90;;;33.00;;
66830;SDS011;53739;44.224;22.528;2023-12-20T05:13:53;88.32;;;39.90;;
66830;SDS011;53739;44.224;22.528;2023-12-20T05:16:19;79.40;;;34.13;;
66830;SDS011;53739;44.224;22.528;2023-12-20T05:18:46;83.03;;;36.58;;
66830;SDS011;53739;44.224;22.528;2023-12-20T05:21:12;64.97;;;31.90;;
66830;SDS011;53739;44.224;22.528;2023-12-20T05:23:38;75.10;;;34.38;;
66830;SDS011;53739;44.224;22.528;2023-12-20T05:26:04;89.18;;;36.90;;
66830;SDS011;53739;44.224;22.528;2023-12-20T05:28:31;64.43;;;30.40;;
66830;SDS011;53739;44.224;22.528;2023-12-20T05:30:57;65.18;;;31.13;;
66830;SDS011;53739;44.224;22.528;2023-12-20T05:33:23;92.25;;;42.05;;
66830;SDS011;53739;44.224;22.528;2023-12-20T05:35:50;107.95;;;45.13;;
66830;SDS011;53739;44.224;22.528;2023-12-20T05:38:16;117.82;;;51.25;;
66830;SDS011;53739;44.224;22.528;2023-12-20T05:40:42;129.77;;;53.53;;
66830;SDS011;53739;44.224;22.528;2023-12-20T05:43:08;146.57;;;57.53;;
66830;SDS011;53739;44.224;22.528;2023-12-20T05:45:34;133.02;;;57.58;;
66830;SDS011;53739;44.224;22.528;2023-12-20T05:48:01;144.43;;;63.67;;
66830;SDS011;53739;44.224;22.528;2023-12-20T05:50:27;152.57;;;61.72;;
66830;SDS011;53739;44.224;22.528;2023-12-20T05:52:54;158.77;;;64.13;;
66830;SDS011;53739;44.224;22.528;2023-12-20T05:55:20;163.95;;;68.20;;
66830;SDS011;53739;44.224;22.528;2023-12-20T05:57:47;149.98;;;68.80;;
66830;SDS011;53739;44.224;22.528;2023-12-20T06:00:13;155.88;;;69.35;;
66830;SDS011;53739;44.224;22.528;2023-12-20T06:02:40;148.25;;;65.47;;
66830;SDS011;53739;44.224;22.528;2023-12-20T06:05:07;165.98;;;68.30;;
66830;SDS011;53739;44.224;22.528;2023-12-20T06:07:33;173.30;;;71.43;;
66830;SDS011;53739;44.224;22.528;2023-12-20T06:09:59;162.27;;;75.15;;
66830;SDS011;53739;44.224;22.528;2023-12-20T06:12:25;155.82;;;70.75;;
66830;SDS011;53739;44.224;22.528;2023-12-20T06:14:57;152.68;;;67.32;;
66830;SDS011;53739;44.224;22.528;2023-12-20T06:17:23;112.50;;;54.47;;
66830;SDS011;53739;44.224;22.528;2023-12-20T06:19:49;116.82;;;49.53;;
66830;SDS011;53739;44.224;22.528;2023-12-20T06:22:15;111.65;;;53.97;;
66830;SDS011;53739;44.224;22.528;2023-12-20T06:24:41;123.82;;;60.15;;
66830;SDS011;53739;44.224;22.528;2023-12-20T06:27:10;132.02;;;62.60;;
66830;SDS011;53739;44.224;22.528;2023-12-20T06:29:36;150.30;;;65.90;;
66830;SDS011;53739;44.224;22.528;2023-12-20T06:32:02;149.38;;;69.70;;
66830;SDS011;53739;44.224;22.528;2023-12-20T06:34:29;161.63;;;69.03;;
66830;SDS011;53739;44.224;22.528;2023-12-20T06:36:55;156.30;;;69.35;;
66830;SDS011;53739;44.224;22.528;2023-12-20T06:39:21;163.00;;;72.32;;
66830;SDS011;53739;44.224;22.528;2023-12-20T06:41:47;188.80;;;81.82;;
66830;SDS011;53739;44.224;22.528;2023-12-20T06:44:13;192.07;;;80.32;;
66830;SDS011;53739;44.224;22.528;2023-12-20T06:46:40;184.57;;;76.68;;
66830;SDS011;53739;44.224;22.528;2023-12-20T06:49:06;163.40;;;72.93;;
66830;SDS011;53739;44.224;22.528;2023-12-20T06:51:32;146.57;;;60.42;;
66830;SDS011;53739;44.224;22.528;2023-12-20T06:53:58;161.02;;;65.72;;
66830;SDS011;53739;44.224;22.528;2023-12-20T06:56:25;154.65;;;67.97;;
66830;SDS011;53739;44.224;22.528;2023-12-20T06:58:51;137.77;;;59.63;;
66830;SDS011;53739;44.224;22.528;2023-12-20T07:01:17;133.65;;;56.88;;
66830;SDS011;53739;44.224;22.528;2023-12-20T07:03:43;148.55;;;61.92;;
66830;SDS011;53739;44.224;22.528;2023-12-20T07:06:09;117.80;;;52.92;;
66830;SDS011;53739;44.224;22.528;2023-12-20T07:08:36;196.57;;;85.50;;
66830;SDS011;53739;44.224;22.528;2023-12-20T07:11:02;153.73;;;68.60;;
66830;SDS011;53739;44.224;22.528;2023-12-20T07:13:28;156.13;;;68.93;;
66830;SDS011;53739;44.224;22.528;2023-12-20T07:15:55;214.30;;;85.00;;
66830;SDS011;53739;44.224;22.528;2023-12-20T07:18:21;228.02;;;96.03;;
66830;SDS011;53739;44.224;22.528;2023-12-20T07:20:47;212.88;;;91.65;;
66830;SDS011;53739;44.224;22.528;2023-12-20T07:23:13;235.38;;;105.05;;
66830;SDS011;53739;44.224;22.528;2023-12-20T07:25:39;242.32;;;101.22;;
66830;SDS011;53739;44.224;22.528;2023-12-20T07:28:05;225.93;;;101.97;;
66830;SDS011;53739;44.224;22.528;2023-12-20T07:30:32;249.90;;;107.38;;
66830;SDS011;53739;44.224;22.528;2023-12-20T07:32:58;250.70;;;110.40;;
66830;SDS011;53739;44.224;22.528;2023-12-20T07:35:24;279.90;;;115.15;;
66830;SDS011;53739;44.224;22.528;2023-12-20T07:37:50;289.98;;;126.05;;
66830;SDS011;53739;44.224;22.528;2023-12-20T07:40:16;303.33;;;130.18;;
66830;SDS011;53739;44.224;22.528;2023-12-20T07:42:42;270.25;;;124.72;;
66830;SDS011;53739;44.224;22.528;2023-12-20T07:45:09;311.75;;;137.40;;
66830;SDS011;53739;44.224;22.528;2023-12-20T07:47:36;282.73;;;123.53;;
66830;SDS011;53739;44.224;22.528;2023-12-20T07:50:02;296.10;;;128.35;;
66830;SDS011;53739;44.224;22.528;2023-12-20T07:52:29;224.48;;;103.00;;
66830;SDS011;53739;44.224;22.528;2023-12-20T07:54:55;182.20;;;86.18;;
66830;SDS011;53739;44.224;22.528;2023-12-20T07:57:21;176.00;;;83.35;;
66830;SDS011;53739;44.224;22.528;2023-12-20T07:59:47;159.27;;;76.07;;
66830;SDS011;53739;44.224;22.528;2023-12-20T08:02:14;117.20;;;54.58;;
66830;SDS011;53739;44.224;22.528;2023-12-20T08:04:40;111.60;;;52.13;;
66830;SDS011;53739;44.224;22.528;2023-12-20T08:07:06;99.40;;;50.53;;
66830;SDS011;53739;44.224;22.528;2023-12-20T08:09:33;109.82;;;54.80;;
66830;SDS011;53739;44.224;22.528;2023-12-20T08:12:01;133.27;;;64.32;;
66830;SDS011;53739;44.224;22.528;2023-12-20T08:14:27;127.55;;;63.97;;
66830;SDS011;53739;44.224;22.528;2023-12-20T08:16:54;137.82;;;65.85;;
66830;SDS011;53739;44.224;22.528;2023-12-20T08:19:20;144.77;;;69.50;;
66830;SDS011;53739;44.224;22.528;2023-12-20T08:21:46;182.60;;;86.53;;
66830;SDS011;53739;44.224;22.528;2023-12-20T08:24:12;210.85;;;100.90;;
66830;SDS011;53739;44.224;22.528;2023-12-20T08:26:38;225.18;;;103.65;;
66830;SDS011;53739;44.224;22.528;2023-12-20T08:29:04;226.23;;;111.32;;
66830;SDS011;53739;44.224;22.528;2023-12-20T08:31:30;219.55;;;107.63;;
66830;SDS011;53739;44.224;22.528;2023-12-20T08:33:57;201.55;;;97.97;;
66830;SDS011;53739;44.224;22.528;2023-12-20T08:36:23;209.23;;;99.18;;
66830;SDS011;53739;44.224;22.528;2023-12-20T08:38:49;219.05;;;110.40;;
66830;SDS011;53739;44.224;22.528;2023-12-20T08:41:16;210.20;;;104.88;;
66830;SDS011;53739;44.224;22.528;2023-12-20T08:43:42;224.65;;;113.43;;
66830;SDS011;53739;44.224;22.528;2023-12-20T08:46:08;224.32;;;115.28;;
66830;SDS011;53739;44.224;22.528;2023-12-20T08:48:35;219.68;;;115.72;;
66830;SDS011;53739;44.224;22.528;2023-12-20T08:51:01;186.65;;;96.97;;
66830;SDS011;53739;44.224;22.528;2023-12-20T08:53:28;169.18;;;89.55;;
66830;SDS011;53739;44.224;22.528;2023-12-20T08:55:54;151.85;;;81.03;;
66830;SDS011;53739;44.224;22.528;2023-12-20T08:58:20;106.13;;;58.63;;
66830;SDS011;53739;44.224;22.528;2023-12-20T09:00:46;100.75;;;50.85;;
66830;SDS011;53739;44.224;22.528;2023-12-20T09:03:12;104.85;;;52.10;;
66830;SDS011;53739;44.224;22.528;2023-12-20T09:05:38;113.07;;;57.78;;
66830;SDS011;53739;44.224;22.528;2023-12-20T09:08:05;71.28;;;38.70;;
66830;SDS011;53739;44.224;22.528;2023-12-20T09:10:33;63.50;;;33.45;;
66830;SDS011;53739;44.224;22.528;2023-12-20T09:12:59;60.88;;;30.85;;
66830;SDS011;53739;44.224;22.528;2023-12-20T09:15:26;60.78;;;28.85;;
66830;SDS011;53739;44.224;22.528;2023-12-20T09:17:54;36.65;;;19.63;;
66830;SDS011;53739;44.224;22.528;2023-12-20T09:20:20;43.63;;;24.20;;
66830;SDS011;53739;44.224;22.528;2023-12-20T09:22:48;36.22;;;20.65;;
66830;SDS011;53739;44.224;22.528;2023-12-20T09:25:15;34.92;;;17.40;;
66830;SDS011;53739;44.224;22.528;2023-12-20T09:27:42;35.42;;;18.25;;
66830;SDS011;53739;44.224;22.528;2023-12-20T09:30:09;44.25;;;21.33;;
66830;SDS011;53739;44.224;22.528;2023-12-20T09:32:35;38.00;;;19.40;;
66830;SDS011;53739;44.224;22.528;2023-12-20T09:35:02;37.95;;;19.88;;
66830;SDS011;53739;44.224;22.528;2023-12-20T09:37:30;42.60;;;22.05;;
66830;SDS011;53739;44.224;22.528;2023-12-20T09:39:56;43.47;;;21.88;;
66830;SDS011;53739;44.224;22.528;2023-12-20T09:45:19;45.55;;;23.65;;
66830;SDS011;53739;44.224;22.528;2023-12-20T09:47:46;45.67;;;25.88;;
66830;SDS011;53739;44.224;22.528;2023-12-20T09:50:13;42.65;;;21.05;;
66830;SDS011;53739;44.224;22.528;2023-12-20T09:52:39;42.13;;;22.05;;
66830;SDS011;53739;44.224;22.528;2023-12-20T09:55:05;34.58;;;19.63;;
66830;SDS011;53739;44.224;22.528;2023-12-20T09:57:32;40.40;;;20.95;;
66830;SDS011;53739;44.224;22.528;2023-12-20T10:03:00;27.73;;;16.67;;
66830;SDS011;53739;44.224;22.528;2023-12-20T10:05:31;31.00;;;16.65;;
66830;SDS011;53739;44.224;22.528;2023-12-20T10:07:57;38.80;;;19.75;;
66830;SDS011;53739;44.224;22.528;2023-12-20T10:10:24;34.60;;;16.77;;
66830;SDS011;53739;44.224;22.528;2023-12-20T10:13:03;41.50;;;21.17;;
66830;SDS011;53739;44.224;22.528;2023-12-20T10:15:29;43.90;;;20.67;;
66830;SDS011;53739;44.224;22.528;2023-12-20T10:17:56;30.75;;;17.20;;
66830;SDS011;53739;44.224;22.528;2023-12-20T10:20:23;30.23;;;16.50;;
66830;SDS011;53739;44.224;22.528;2023-12-20T10:22:49;33.85;;;17.90;;
66830;SDS011;53739;44.224;22.528;2023-12-20T10:25:19;32.78;;;18.25;;
66830;SDS011;53739;44.224;22.528;2023-12-20T10:27:46;31.88;;;18.60;;
66830;SDS011;53739;44.224;22.528;2023-12-20T10:30:13;36.58;;;16.25;;
66830;SDS011;53739;44.224;22.528;2023-12-20T10:32:39;29.83;;;15.70;;
66830;SDS011;53739;44.224;22.528;2023-12-20T10:35:06;24.98;;;14.52;;
66830;SDS011;53739;44.224;22.528;2023-12-20T10:37:36;31.65;;;17.10;;
66830;SDS011;53739;44.224;22.528;2023-12-20T10:40:03;33.05;;;19.88;;
66830;SDS011;53739;44.224;22.528;2023-12-20T10:42:30;29.83;;;16.02;;
66830;SDS011;53739;44.224;22.528;2023-12-20T10:44:59;31.17;;;17.42;;
66830;SDS011;53739;44.224;22.528;2023-12-20T10:47:25;35.15;;;18.63;;
66830;SDS011;53739;44.224;22.528;2023-12-20T10:49:54;36.95;;;19.50;;
66830;SDS011;53739;44.224;22.528;2023-12-20T10:52:23;31.63;;;17.25;;
66830;SDS011;53739;44.224;22.528;2023-12-20T10:54:50;29.65;;;17.02;;
66830;SDS011;53739;44.224;22.528;2023-12-20T10:57:16;30.35;;;15.98;;
66830;SDS011;53739;44.224;22.528;2023-12-20T10:59:44;30.70;;;15.65;;
66830;SDS011;53739;44.224;22.528;2023-12-20T11:02:12;34.97;;;19.35;;
66830;SDS011;53739;44.224;22.528;2023-12-20T11:04:40;32.50;;;18.55;;
66830;SDS011;53739;44.224;22.528;2023-12-20T11:07:32;40.15;;;20.08;;
66830;SDS011;53739;44.224;22.528;2023-12-20T11:10:00;30.40;;;17.67;;
66830;SDS011;53739;44.224;22.528;2023-12-20T11:12:46;31.17;;;16.90;;
66830;SDS011;53739;44.224;22.528;2023-12-20T11:15:13;30.13;;;18.33;;
66830;SDS011;53739;44.224;22.528;2023-12-20T11:17:40;33.83;;;19.40;;
66830;SDS011;53739;44.224;22.528;2023-12-20T11:20:07;29.83;;;17.60;;
66830;SDS011;53739;44.224;22.528;2023-12-20T11:22:35;36.22;;;17.98;;
66830;SDS011;53739;44.224;22.528;2023-12-20T11:25:04;37.50;;;19.15;;
66830;SDS011;53739;44.224;22.528;2023-12-20T11:27:34;35.10;;;19.75;;
66830;SDS011;53739;44.224;22.528;2023-12-20T11:30:02;35.60;;;18.25;;
66830;SDS011;53739;44.224;22.528;2023-12-20T11:32:31;41.75;;;21.38;;
66830;SDS011;53739;44.224;22.528;2023-12-20T11:37:29;55.10;;;29.02;;
66830;SDS011;53739;44.224;22.528;2023-12-20T11:40:00;38.30;;;22.73;;
66830;SDS011;53739;44.224;22.528;2023-12-20T11:42:27;41.40;;;23.55;;
66830;SDS011;53739;44.224;22.528;2023-12-20T11:44:53;39.35;;;21.05;;
66830;SDS011;53739;44.224;22.528;2023-12-20T11:47:19;45.60;;;23.70;;
66830;SDS011;53739;44.224;22.528;2023-12-20T11:49:47;46.25;;;23.02;;
66830;SDS011;53739;44.224;22.528;2023-12-20T11:52:13;36.05;;;21.98;;
66830;SDS011;53739;44.224;22.528;2023-12-20T11:54:40;37.90;;;21.65;;
66830;SDS011;53739;44.224;22.528;2023-12-20T11:57:06;39.25;;;22.00;;
66830;SDS011;53739;44.224;22.528;2023-12-20T11:59:32;40.40;;;23.13;;
66830;SDS011;53739;44.224;22.528;2023-12-20T12:01:58;46.30;;;25.10;;
66830;SDS011;53739;44.224;22.528;2023-12-20T12:04:26;43.65;;;26.35;;
66830;SDS011;53739;44.224;22.528;2023-12-20T12:06:53;66.38;;;34.25;;
66830;SDS011;53739;44.224;22.528;2023-12-20T12:09:19;65.63;;;35.88;;
66830;SDS011;53739;44.224;22.528;2023-12-20T12:11:45;102.28;;;45.05;;
66830;SDS011;53739;44.224;22.528;2023-12-20T12:14:11;108.63;;;46.58;;
66830;SDS011;53739;44.224;22.528;2023-12-20T12:16:37;56.95;;;29.33;;
66830;SDS011;53739;44.224;22.528;2023-12-20T12:19:04;78.53;;;35.75;;
66830;SDS011;53739;44.224;22.528;2023-12-20T12:21:30;59.08;;;32.08;;
66830;SDS011;53739;44.224;22.528;2023-12-20T12:24:08;60.05;;;30.38;;
66830;SDS011;53739;44.224;22.528;2023-12-20T12:26:34;58.22;;;30.50;;
66830;SDS011;53739;44.224;22.528;2023-12-20T12:29:01;56.45;;;29.25;;
66830;SDS011;53739;44.224;22.528;2023-12-20T12:31:27;63.05;;;33.17;;
66830;SDS011;53739;44.224;22.528;2023-12-20T12:33:53;76.22;;;39.65;;
66830;SDS011;53739;44.224;22.528;2023-12-20T12:36:19;76.25;;;38.10;;
66830;SDS011;53739;44.224;22.528;2023-12-20T12:38:46;50.47;;;29.25;;
66830;SDS011;53739;44.224;22.528;2023-12-20T12:41:15;47.60;;;27.10;;
66830;SDS011;53739;44.224;22.528;2023-12-20T12:43:41;57.38;;;29.77;;
66830;SDS011;53739;44.224;22.528;2023-12-20T12:46:07;56.92;;;29.10;;
66830;SDS011;53739;44.224;22.528;2023-12-20T12:48:34;61.42;;;31.85;;
66830;SDS011;53739;44.224;22.528;2023-12-20T12:51:00;61.78;;;31.17;;
66830;SDS011;53739;44.224;22.528;2023-12-20T12:53:26;52.95;;;27.27;;
66830;SDS011;53739;44.224;22.528;2023-12-20T12:55:52;43.95;;;24.25;;
66830;SDS011;53739;44.224;22.528;2023-12-20T12:58:19;32.95;;;18.40;;
66830;SDS011;53739;44.224;22.528;2023-12-20T13:00:45;34.42;;;20.23;;
66830;SDS011;53739;44.224;22.528;2023-12-20T13:03:12;36.22;;;19.85;;
66830;SDS011;53739;44.224;22.528;2023-12-20T13:05:38;30.35;;;15.90;;
66830;SDS011;53739;44.224;22.528;2023-12-20T13:08:04;32.67;;;20.33;;
66830;SDS011;53739;44.224;22.528;2023-12-20T13:10:30;34.10;;;21.25;;
66830;SDS011;53739;44.224;22.528;2023-12-20T13:12:56;29.05;;;16.50;;
66830;SDS011;53739;44.224;22.528;2023-12-20T13:15:22;83.60;;;33.03;;
66830;SDS011;53739;44.224;22.528;2023-12-20T13:17:49;49.30;;;24.70;;
66830;SDS011;53739;44.224;22.528;2023-12-20T13:20:17;36.90;;;19.98;;
66830;SDS011;53739;44.224;22.528;2023-12-20T13:22:43;45.85;;;24.52;;
66830;SDS011;53739;44.224;22.528;2023-12-20T13:25:10;32.97;;;19.13;;
66830;SDS011;53739;44.224;22.528;2023-12-20T13:27:36;50.78;;;25.13;;
66830;SDS011;53739;44.224;22.528;2023-12-20T13:30:02;41.65;;;22.67;;
66830;SDS011;53739;44.224;22.528;2023-12-20T13:32:28;27.85;;;16.23;;
66830;SDS011;53739;44.224;22.528;2023-12-20T13:34:55;25.80;;;15.75;;
66830;SDS011;53739;44.224;22.528;2023-12-20T13:37:21;35.70;;;20.67;;
66830;SDS011;53739;44.224;22.528;2023-12-20T13:39:47;36.47;;;19.67;;
66830;SDS011;53739;44.224;22.528;2023-12-20T13:45:04;36.90;;;18.88;;
66830;SDS011;53739;44.224;22.528;2023-12-20T13:47:31;67.38;;;35.72;;
66830;SDS011;53739;44.224;22.528;2023-12-20T13:49:57;67.25;;;36.13;;
66830;SDS011;53739;44.224;22.528;2023-12-20T13:52:23;82.82;;;41.72;;
66830;SDS011;53739;44.224;22.528;2023-12-20T13:54:50;75.07;;;37.88;;
66830;SDS011;53739;44.224;22.528;2023-12-20T13:57:16;72.20;;;38.28;;
66830;SDS011;53739;44.224;22.528;2023-12-20T13:59:42;80.38;;;44.40;;
66830;SDS011;53739;44.224;22.528;2023-12-20T14:02:08;71.32;;;40.53;;
66830;SDS011;53739;44.224;22.528;2023-12-20T14:04:34;86.18;;;46.30;;
66830;SDS011;53739;44.224;22.528;2023-12-20T14:07:01;77.35;;;41.80;;